createdAt,value
2023-04-29T09:38:11.973Z,3.17
2023-04-29T09:40:54.366Z,2.60
2023-04-29T09:43:26.275Z,3.25
2023-04-29T09:45:53.650Z,5.70
2023-04-29T09:48:20.913Z,5.88
2023-04-29T09:51:02.189Z,4.57
2023-04-29T09:53:31.682Z,4.35
2023-04-29T09:56:03.654Z,3.90
2023-04-29T09:58:38.021Z,3.63
2023-04-29T10:01:06.679Z,4.28
2023-04-29T10:03:38.319Z,3.85
2023-04-29T10:06:07.234Z,4.07
2023-04-29T10:08:34.961Z,5.68
2023-04-29T10:11:04.104Z,5.82
2023-04-29T10:16:11.569Z,7.03
2023-04-29T10:18:41.981Z,6.05
2023-04-29T10:21:09.847Z,5.38
2023-04-29T10:23:37.889Z,6.10
2023-04-29T10:26:06.379Z,5.80
2023-04-29T10:28:33.670Z,6.40
2023-04-29T10:31:03.768Z,5.47
2023-04-29T10:33:33.395Z,4.82
2023-04-29T10:36:02.205Z,4.80
2023-04-29T10:38:36.150Z,4.80
2023-04-29T10:41:28.785Z,4.60
2023-04-29T10:43:56.631Z,4.75
2023-04-29T10:46:27.545Z,5.28
2023-04-29T10:49:01.600Z,4.55
2023-04-29T10:51:39.736Z,4.53
2023-04-29T10:54:17.157Z,4.30
2023-04-29T10:56:50.597Z,4.90
2023-04-29T10:59:22.494Z,4.45
2023-04-29T11:01:53.606Z,4.45
2023-04-29T11:04:22.208Z,4.40
2023-04-29T11:06:56.431Z,4.13
2023-04-29T11:09:27.972Z,4.57
2023-04-29T11:12:03.856Z,4.32
2023-04-29T11:14:42.037Z,4.15
2023-04-29T11:17:11.159Z,4.03
2023-04-29T11:19:46.733Z,4.20
2023-04-29T11:22:15.224Z,4.15
2023-04-29T11:24:56.047Z,4.18
2023-04-29T11:27:25.676Z,3.72
2023-04-29T11:30:00.505Z,3.97
2023-04-29T11:32:29.340Z,4.25
2023-04-29T11:35:12.650Z,4.25
2023-04-29T11:37:41.481Z,4.05
2023-04-29T11:40:09.780Z,4.25
2023-04-29T11:42:45.401Z,4.40
2023-04-29T11:45:13.257Z,4.07
2023-04-29T11:47:45.570Z,4.07
2023-04-29T11:50:13.606Z,5.97
2023-04-29T11:52:41.749Z,5.10
2023-04-29T11:55:12.857Z,5.90
2023-04-29T11:57:40.578Z,4.72
2023-04-29T12:00:13.866Z,4.10
2023-04-29T12:02:46.314Z,4.53
2023-04-29T12:05:16.088Z,4.80
2023-04-29T12:07:44.153Z,5.13
2023-04-29T12:10:12.251Z,5.05
2023-04-29T12:12:43.996Z,5.30
2023-04-29T12:15:11.737Z,5.25
2023-04-29T12:17:39.618Z,5.10
2023-04-29T12:20:10.413Z,5.97
2023-04-29T12:22:37.824Z,5.25
2023-04-29T12:25:06.081Z,4.53
2023-04-29T12:27:36.376Z,4.73
2023-04-29T12:30:08.505Z,4.35
2023-04-29T12:32:37.056Z,4.15
2023-04-29T12:35:04.487Z,4.70
2023-04-29T12:37:31.864Z,4.47
2023-04-29T12:39:59.123Z,4.60
2023-04-29T12:42:34.006Z,4.00
2023-04-29T12:45:01.252Z,4.20
2023-04-29T12:47:36.932Z,4.50
2023-04-29T12:50:04.372Z,4.05
2023-04-29T12:52:31.671Z,4.00
2023-04-29T12:54:59.052Z,5.47
2023-04-29T12:57:29.644Z,5.43
2023-04-29T12:59:56.891Z,5.93
2023-04-29T13:02:24.123Z,4.93
2023-04-29T13:04:52.163Z,5.25
2023-04-29T13:07:19.879Z,4.28
2023-04-29T13:09:47.202Z,4.40
2023-04-29T13:12:14.374Z,4.22
2023-04-29T13:14:41.587Z,3.80
2023-04-29T13:17:08.889Z,3.88
2023-04-29T13:19:50.212Z,3.80
2023-04-29T13:22:18.685Z,4.10
2023-04-29T13:24:46.632Z,3.67
2023-04-29T13:27:14.852Z,4.00
2023-04-29T13:29:42.051Z,3.72
2023-04-29T13:32:09.347Z,3.88
2023-04-29T13:34:36.766Z,3.97
2023-04-29T13:37:03.922Z,3.28
2023-04-29T13:39:31.756Z,3.28
2023-04-29T13:41:59.715Z,4.28
2023-04-29T13:44:34.194Z,4.90
2023-04-29T13:47:07.442Z,5.60
2023-04-29T13:50:05.739Z,5.53
2023-04-29T13:55:12.347Z,4.30
2023-04-29T13:58:36.404Z,3.53
2023-04-29T14:00:56.984Z,3.80
2023-04-29T14:03:14.942Z,3.80
2023-04-29T14:05:42.551Z,3.90
2023-04-29T14:08:10.046Z,3.80
2023-04-29T14:10:37.393Z,3.60
2023-04-29T14:13:05.931Z,3.35
2023-04-29T14:15:33.599Z,3.55
2023-04-29T14:18:01.033Z,3.38
2023-04-29T14:20:29.960Z,3.35
2023-04-29T14:22:57.183Z,3.90
2023-04-29T14:25:25.228Z,3.70
2023-04-29T14:27:54.183Z,4.00
2023-04-29T14:30:21.665Z,4.95
2023-04-29T14:32:49.137Z,4.50
2023-04-29T14:35:16.640Z,4.43
2023-04-29T14:37:44.113Z,4.30
2023-04-29T14:40:11.734Z,4.40
2023-04-29T14:42:38.928Z,4.95
2023-04-29T14:45:06.974Z,4.13
2023-04-29T14:47:34.370Z,4.18
2023-04-29T14:50:02.064Z,3.75
2023-04-29T14:52:29.255Z,3.28
2023-04-29T14:54:56.621Z,4.00
2023-04-29T14:57:23.958Z,4.20
2023-04-29T14:59:51.322Z,3.58
2023-04-29T15:02:18.681Z,3.50
2023-04-29T15:04:46.358Z,3.85
2023-04-29T15:07:14.415Z,4.13
2023-04-29T15:09:41.989Z,3.88
2023-04-29T15:12:10.237Z,3.53
2023-04-29T15:14:37.754Z,4.30
2023-04-29T15:17:04.975Z,3.70
2023-04-29T15:19:32.424Z,3.75
2023-04-29T15:21:59.644Z,4.00
2023-04-29T15:24:27.088Z,4.07
2023-04-29T15:26:54.328Z,4.68
2023-04-29T15:29:21.838Z,4.82
2023-04-29T15:31:49.390Z,5.10
2023-04-29T15:34:16.889Z,5.43
2023-04-29T15:36:44.068Z,5.68
2023-04-29T15:39:12.196Z,5.70
2023-04-29T15:41:39.690Z,5.32
2023-04-29T15:44:06.902Z,4.95
2023-04-29T15:46:34.400Z,4.30
2023-04-29T15:49:02.369Z,4.22
2023-04-29T15:51:29.533Z,3.70
2023-04-29T15:53:56.726Z,4.00
2023-04-29T15:56:24.449Z,3.70
2023-04-29T15:58:51.701Z,3.65
2023-04-29T16:01:19.465Z,3.65
2023-04-29T16:03:46.815Z,3.67
2023-04-29T16:06:15.973Z,3.90
2023-04-29T16:08:43.287Z,3.65
2023-04-29T16:11:10.591Z,3.80
2023-04-29T16:13:37.766Z,4.00
2023-04-29T16:16:05.084Z,3.95
2023-04-29T16:18:33.746Z,3.60
2023-04-29T16:21:01.167Z,3.90
2023-04-29T16:23:28.530Z,3.28
2023-04-29T16:25:56.012Z,3.55
2023-04-29T16:28:24.188Z,3.40
2023-04-29T16:30:51.340Z,3.20
2023-04-29T16:33:18.612Z,3.22
2023-04-29T16:35:45.792Z,3.03
2023-04-29T16:38:13.222Z,3.13
2023-04-29T16:40:40.460Z,3.17
2023-04-29T16:43:07.632Z,2.97
2023-04-29T16:45:34.792Z,3.90
2023-04-29T16:48:02.719Z,4.22
2023-04-29T16:50:30.108Z,3.88
2023-04-29T16:52:57.270Z,4.05
2023-04-29T16:55:24.595Z,3.85
2023-04-29T16:57:51.949Z,3.60
2023-04-29T17:00:19.244Z,3.80
2023-04-29T17:02:48.472Z,3.58
2023-04-29T17:05:19.344Z,3.22
2023-04-29T17:07:46.824Z,3.50
2023-04-29T17:10:14.039Z,3.35
2023-04-29T17:12:41.219Z,3.10
2023-04-29T17:15:08.769Z,3.30
2023-04-29T17:17:36.276Z,2.80
2023-04-29T17:20:03.835Z,2.88
2023-04-29T17:22:32.655Z,2.80
2023-04-29T17:25:00.086Z,2.63
2023-04-29T17:27:27.418Z,2.92
2023-04-29T17:29:54.793Z,2.65
2023-04-29T17:32:28.472Z,2.78
2023-04-29T17:34:56.745Z,2.67
2023-04-29T17:37:27.008Z,2.60
2023-04-29T17:39:54.539Z,2.95
2023-04-29T17:42:22.078Z,3.05
2023-04-29T17:44:49.471Z,3.35
2023-04-29T17:47:21.153Z,2.97
2023-04-29T17:49:48.816Z,3.28
2023-04-29T17:52:20.868Z,3.08
2023-04-29T17:54:48.915Z,2.63
2023-04-29T17:57:16.311Z,2.70
2023-04-29T17:59:44.150Z,2.90
2023-04-29T18:02:11.521Z,2.70
2023-04-29T18:04:40.560Z,3.00
2023-04-29T18:09:34.900Z,2.47
2023-04-29T18:12:02.365Z,2.83
2023-04-29T18:14:30.966Z,3.38
2023-04-29T18:17:02.176Z,2.70
2023-04-29T18:19:29.555Z,2.22
2023-04-29T18:21:59.127Z,2.70
2023-04-29T18:24:27.389Z,2.35
2023-04-29T18:26:55.856Z,2.70
2023-04-29T18:29:23.137Z,2.88
2023-04-29T18:31:50.527Z,2.47
2023-04-29T18:34:18.014Z,2.70
2023-04-29T18:36:45.609Z,2.78
2023-04-29T18:39:13.064Z,2.47
2023-04-29T18:41:40.420Z,2.78
2023-04-29T18:44:07.647Z,2.80
2023-04-29T18:46:35.216Z,2.50
2023-04-29T18:49:02.762Z,3.22
2023-04-29T18:51:30.273Z,2.70
2023-04-29T18:53:57.499Z,2.40
2023-04-29T18:56:24.749Z,2.70
2023-04-29T18:58:52.141Z,2.53
2023-04-29T19:01:19.577Z,2.85
2023-04-29T19:03:47.033Z,2.80
2023-04-29T19:06:14.449Z,3.13
2023-04-29T19:08:41.709Z,3.40
2023-04-29T19:11:08.968Z,2.40
2023-04-29T19:13:36.154Z,3.05
2023-04-29T19:16:03.460Z,2.78
2023-04-29T19:18:30.753Z,2.90
2023-04-29T19:20:58.151Z,2.63
2023-04-29T19:23:25.419Z,2.53
2023-04-29T19:25:52.617Z,3.00
2023-04-29T19:28:19.857Z,2.72
2023-04-29T19:30:47.153Z,3.08
2023-04-29T19:33:14.455Z,2.55
2023-04-29T19:35:41.895Z,2.80
2023-04-29T19:38:09.207Z,3.05
2023-04-29T19:40:36.384Z,2.63
2023-04-29T19:43:03.804Z,2.92
2023-04-29T19:45:31.388Z,2.35
2023-04-29T19:48:01.963Z,3.03
2023-04-29T19:50:32.923Z,2.92
2023-04-29T19:53:00.423Z,2.60
2023-04-29T19:55:27.916Z,2.70
2023-04-29T19:57:55.331Z,2.50
2023-04-29T20:00:22.858Z,2.53
2023-04-29T20:02:52.189Z,3.10
2023-04-29T20:05:19.887Z,2.40
2023-04-29T20:07:47.374Z,2.88
2023-04-29T20:10:15.061Z,2.65
2023-04-29T20:12:42.561Z,2.60
2023-04-29T20:15:10.345Z,2.95
2023-04-29T20:17:38.972Z,2.72
2023-04-29T20:20:08.921Z,2.78
2023-04-29T20:22:36.231Z,2.90
2023-04-29T20:25:04.166Z,2.72
2023-04-29T20:27:31.336Z,3.20
2023-04-29T20:29:58.825Z,3.00
2023-04-29T20:32:26.374Z,4.22
2023-04-29T20:34:54.382Z,3.70
2023-04-29T20:37:26.335Z,4.07
2023-04-29T20:39:53.745Z,4.15
2023-04-29T20:42:21.087Z,4.05
2023-04-29T20:44:48.409Z,3.90
2023-04-29T20:47:15.883Z,3.47
2023-04-29T20:49:43.719Z,3.70
2023-04-29T20:52:11.312Z,3.45
2023-04-29T20:54:41.070Z,3.63
2023-04-29T20:57:08.339Z,3.58
2023-04-29T20:59:35.682Z,3.75
2023-04-29T21:02:02.886Z,3.30
2023-04-29T21:04:30.282Z,3.78
2023-04-29T21:06:57.500Z,3.00
2023-04-29T21:09:26.613Z,3.20
2023-04-29T21:11:53.776Z,3.42
2023-04-29T21:14:20.975Z,3.08
2023-04-29T21:16:48.314Z,3.22
2023-04-29T21:19:15.867Z,3.17
2023-04-29T21:21:43.742Z,3.38
2023-04-29T21:24:11.054Z,3.17
2023-04-29T21:26:38.617Z,2.83
2023-04-29T21:29:05.891Z,2.88
2023-04-29T21:31:33.389Z,3.05
2023-04-29T21:34:00.825Z,2.83
2023-04-29T21:36:28.277Z,2.92
2023-04-29T21:38:55.682Z,2.88
2023-04-29T21:41:31.531Z,3.03
2023-04-29T21:43:59.481Z,2.75
2023-04-29T21:46:30.645Z,2.25
2023-04-29T21:49:01.291Z,2.83
2023-04-29T21:51:29.224Z,2.83
2023-04-29T21:53:56.449Z,2.90
2023-04-29T21:56:24.579Z,2.65
2023-04-29T21:58:52.648Z,2.67
2023-04-29T22:01:29.501Z,2.72
2023-04-29T22:03:57.895Z,2.83
2023-04-29T22:06:25.389Z,2.70
2023-04-29T22:08:52.758Z,2.67
2023-04-29T22:11:21.737Z,2.83
2023-04-29T22:16:16.564Z,2.55
2023-04-29T22:18:43.797Z,2.63
2023-04-29T22:21:11.001Z,2.30
2023-04-29T22:23:38.244Z,2.70
2023-04-29T22:26:05.923Z,2.35
2023-04-29T22:28:33.300Z,2.42
2023-04-29T22:31:00.503Z,2.47
2023-04-29T22:33:27.795Z,2.60
2023-04-29T22:35:55.030Z,2.20
2023-04-29T22:38:22.640Z,2.25
2023-04-29T22:40:51.103Z,2.47
2023-04-29T22:43:18.530Z,2.50
2023-04-29T22:45:53.080Z,2.33
2023-04-29T22:48:20.657Z,2.33
2023-04-29T22:50:52.387Z,2.35
2023-04-29T22:53:20.140Z,2.30
2023-04-29T22:55:57.968Z,1.95
2023-04-29T22:58:25.994Z,2.28
2023-04-29T23:00:57.213Z,2.30
2023-04-29T23:03:25.092Z,2.22
2023-04-29T23:05:54.642Z,2.22
2023-04-29T23:08:21.850Z,2.20
2023-04-29T23:10:49.672Z,2.35
2023-04-29T23:13:17.374Z,2.60
2023-04-29T23:15:45.016Z,2.00
2023-04-29T23:18:12.432Z,2.10
2023-04-29T23:20:39.655Z,1.80
2023-04-29T23:23:06.924Z,2.22
2023-04-29T23:25:34.469Z,2.00
2023-04-29T23:28:01.688Z,1.95
2023-04-29T23:30:28.848Z,2.00
2023-04-29T23:32:56.044Z,1.95
2023-04-29T23:35:23.227Z,1.73
2023-04-29T23:37:50.454Z,1.90
2023-04-29T23:40:17.641Z,2.35
2023-04-29T23:42:44.817Z,1.83
2023-04-29T23:45:12.088Z,1.75
2023-04-29T23:47:39.344Z,1.73
2023-04-29T23:50:07.116Z,2.20
2023-04-29T23:52:34.278Z,1.95
2023-04-29T23:55:01.430Z,1.92
2023-04-29T23:57:28.648Z,1.52
2023-04-29T23:59:56.273Z,1.65
